createdAt,value
2018-08-09T00:00:56.909Z,18.80
2018-08-09T00:03:25.851Z,18.80
2018-08-09T00:05:54.726Z,18.80
2018-08-09T00:08:23.755Z,18.70
2018-08-09T00:10:53.443Z,18.70
2018-08-09T00:13:22.817Z,18.70
2018-08-09T00:15:51.740Z,18.60
2018-08-09T00:18:20.632Z,18.60
2018-08-09T00:20:49.549Z,18.60
2018-08-09T00:23:18.464Z,18.70
2018-08-09T00:25:48.033Z,18.70
2018-08-09T00:28:17.681Z,18.70
2018-08-09T00:30:46.613Z,18.60
2018-08-09T00:33:15.539Z,18.60
2018-08-09T00:35:44.424Z,18.50
2018-08-09T00:38:14.098Z,18.50
2018-08-09T00:40:43.083Z,18.50
2018-08-09T00:43:12.896Z,18.40
2018-08-09T00:45:41.768Z,18.40
2018-08-09T00:48:10.691Z,18.30
2018-08-09T00:50:39.675Z,18.30
2018-08-09T00:53:09.071Z,18.20
2018-08-09T00:55:38.963Z,18.10
2018-08-09T00:58:07.881Z,18.10
2018-08-09T01:00:36.764Z,18.10
2018-08-09T01:03:06.164Z,18.10
2018-08-09T01:05:35.199Z,18.10
2018-08-09T01:08:04.478Z,18.20
2018-08-09T01:10:33.391Z,18.20
2018-08-09T01:13:02.378Z,18.10
2018-08-09T01:15:31.319Z,18.10
2018-08-09T01:18:00.222Z,18.20
2018-08-09T01:20:29.196Z,18.10
2018-08-09T01:22:59.749Z,18.00
2018-08-09T01:25:30.041Z,18.00
2018-08-09T01:27:59.341Z,18.00
2018-08-09T01:30:28.564Z,18.10
2018-08-09T01:32:58.095Z,18.10
2018-08-09T01:35:27.613Z,18.10
2018-08-09T01:37:56.583Z,18.20
2018-08-09T01:40:25.538Z,18.20
2018-08-09T01:43:05.820Z,18.30
2018-08-09T01:45:35.203Z,18.30
2018-08-09T01:48:04.187Z,18.30
2018-08-09T01:50:33.091Z,18.30
2018-08-09T01:53:01.961Z,18.30
2018-08-09T01:55:33.120Z,18.30
2018-08-09T01:58:02.011Z,18.30
2018-08-09T02:00:30.903Z,18.40
2018-08-09T02:02:59.859Z,18.30
2018-08-09T02:05:28.839Z,18.30
2018-08-09T02:07:58.484Z,18.30
2018-08-09T02:10:28.396Z,18.30
2018-08-09T02:12:57.323Z,18.20
2018-08-09T02:15:26.282Z,18.20
2018-08-09T02:17:55.260Z,18.00
2018-08-09T02:20:25.264Z,17.70
2018-08-09T02:22:55.193Z,17.70
2018-08-09T02:25:24.185Z,17.70
2018-08-09T02:27:53.115Z,17.70
2018-08-09T02:30:22.030Z,17.60
2018-08-09T02:32:51.577Z,17.70
2018-08-09T02:35:21.194Z,17.70
2018-08-09T02:37:50.454Z,17.70
2018-08-09T02:40:26.056Z,17.50
2018-08-09T02:42:54.919Z,17.50
2018-08-09T02:45:23.882Z,17.40
2018-08-09T02:47:52.835Z,17.40
2018-08-09T02:50:22.319Z,17.30
2018-08-09T02:52:51.225Z,17.20
2018-08-09T02:55:20.193Z,17.20
2018-08-09T02:57:49.126Z,17.30
2018-08-09T03:00:18.032Z,17.30
2018-08-09T03:02:46.991Z,17.40
2018-08-09T03:05:16.017Z,17.50
2018-08-09T03:07:45.477Z,17.50
2018-08-09T03:10:14.450Z,17.50
2018-08-09T03:12:43.341Z,17.40
2018-08-09T03:15:12.287Z,17.30
2018-08-09T03:17:41.222Z,17.30
2018-08-09T03:20:10.145Z,17.20
2018-08-09T03:22:39.709Z,17.00
2018-08-09T03:25:08.675Z,17.00
2018-08-09T03:27:37.553Z,17.10
2018-08-09T03:30:07.442Z,17.20
2018-08-09T03:32:37.164Z,17.20
2018-08-09T03:35:06.237Z,17.30
2018-08-09T03:37:35.154Z,17.40
2018-08-09T03:40:04.426Z,17.30
2018-08-09T03:42:33.313Z,17.10
2018-08-09T03:45:02.706Z,17.00
2018-08-09T03:47:31.619Z,17.00
2018-08-09T03:50:00.555Z,16.90
2018-08-09T03:52:30.700Z,16.80
2018-08-09T03:55:00.037Z,16.80
2018-08-09T03:57:29.216Z,16.90
2018-08-09T03:59:58.689Z,16.90
2018-08-09T04:02:27.642Z,17.10
2018-08-09T04:04:56.610Z,17.10
2018-08-09T04:07:25.517Z,17.10
2018-08-09T04:09:54.778Z,17.20
2018-08-09T04:12:23.631Z,17.20
2018-08-09T04:14:52.524Z,17.30
2018-08-09T04:17:22.372Z,17.30
2018-08-09T04:19:53.026Z,17.30
2018-08-09T04:22:23.215Z,17.20
2018-08-09T04:24:52.089Z,17.10
2018-08-09T04:27:21.551Z,17.00
2018-08-09T04:29:50.888Z,17.00
2018-08-09T04:32:20.236Z,17.00
2018-08-09T04:34:49.636Z,17.00
2018-08-09T04:37:19.748Z,17.00
2018-08-09T04:39:49.908Z,16.90
2018-08-09T04:42:18.799Z,16.70
2018-08-09T04:44:47.687Z,16.70
2018-08-09T04:47:16.524Z,16.80
2018-08-09T04:49:45.840Z,16.80
2018-08-09T04:52:16.461Z,16.70
2018-08-09T04:54:45.620Z,16.70
2018-08-09T04:57:14.862Z,16.70
2018-08-09T04:59:44.055Z,16.80
2018-08-09T05:02:12.957Z,16.80
2018-08-09T05:04:41.964Z,16.80
2018-08-09T05:07:11.869Z,16.70
2018-08-09T05:09:40.790Z,16.60
2018-08-09T05:12:09.682Z,16.70
2018-08-09T05:14:39.401Z,16.70
2018-08-09T05:17:09.671Z,16.80
2018-08-09T05:19:38.600Z,16.70
2018-08-09T05:22:07.547Z,16.80
2018-08-09T05:24:36.409Z,16.70
2018-08-09T05:27:05.396Z,16.70
2018-08-09T05:29:34.381Z,16.70
2018-08-09T05:32:03.332Z,16.70
2018-08-09T05:34:32.713Z,16.70
2018-08-09T05:37:01.691Z,16.70
2018-08-09T05:39:30.988Z,16.70
2018-08-09T05:42:00.429Z,16.80
2018-08-09T05:44:29.698Z,16.80
2018-08-09T05:46:59.801Z,16.80
2018-08-09T05:49:28.786Z,16.80
2018-08-09T05:51:57.672Z,16.80
2018-08-09T05:54:26.660Z,16.90
2018-08-09T05:56:55.586Z,17.00
2018-08-09T05:59:24.480Z,17.10
2018-08-09T06:01:53.435Z,17.30
2018-08-09T06:04:22.341Z,17.40
2018-08-09T06:06:51.282Z,17.50
2018-08-09T06:09:20.211Z,17.60
2018-08-09T06:11:49.135Z,17.60
2018-08-09T06:14:18.027Z,17.70
2018-08-09T06:16:46.925Z,17.70
2018-08-09T06:19:15.921Z,17.80
2018-08-09T06:21:44.850Z,17.80
2018-08-09T06:24:13.751Z,17.90
2018-08-09T06:26:43.129Z,18.00
2018-08-09T06:29:13.096Z,18.10
2018-08-09T06:31:42.073Z,18.10
2018-08-09T06:34:12.010Z,18.30
2018-08-09T06:36:41.801Z,18.30
2018-08-09T06:39:10.747Z,18.40
2018-08-09T06:41:40.043Z,18.50
2018-08-09T06:44:09.190Z,18.60
2018-08-09T06:46:38.176Z,18.70
2018-08-09T06:49:07.288Z,18.80
2018-08-09T06:51:36.232Z,18.90
2018-08-09T06:54:05.223Z,19.00
2018-08-09T06:59:24.899Z,19.10
2018-08-09T07:01:53.727Z,19.10
2018-08-09T07:04:22.503Z,19.40
2018-08-09T07:06:51.352Z,19.50
2018-08-09T07:09:20.122Z,19.60
2018-08-09T07:11:48.944Z,19.60
2018-08-09T07:14:17.744Z,19.70
2018-08-09T07:16:46.536Z,19.80
2018-08-09T07:19:15.314Z,19.90
2018-08-09T07:21:44.104Z,19.90
2018-08-09T07:24:13.242Z,20.00
2018-08-09T07:26:42.315Z,20.10
2018-08-09T07:29:11.485Z,20.20
2018-08-09T07:31:40.594Z,20.30
2018-08-09T07:34:09.743Z,20.30
2018-08-09T07:36:38.891Z,20.40
2018-08-09T07:39:09.323Z,20.50
2018-08-09T07:41:39.555Z,20.50
2018-08-09T07:44:08.995Z,20.50
2018-08-09T07:46:38.102Z,20.70
2018-08-09T07:49:07.254Z,20.80
2018-08-09T07:51:36.727Z,20.80
2018-08-09T07:54:06.036Z,21.00
2018-08-09T07:56:35.123Z,21.10
2018-08-09T07:59:04.612Z,21.20
2018-08-09T08:01:34.152Z,21.30
2018-08-09T08:04:03.772Z,21.50
2018-08-09T08:06:34.034Z,21.60
2018-08-09T08:09:03.402Z,21.70
2018-08-09T08:11:32.762Z,21.80
2018-08-09T08:14:02.213Z,21.80
2018-08-09T08:16:31.595Z,21.80
2018-08-09T08:19:01.195Z,22.00
2018-08-09T08:21:30.683Z,22.20
2018-08-09T08:24:00.085Z,22.30
2018-08-09T08:26:29.534Z,22.40
2018-08-09T08:28:58.957Z,22.50
2018-08-09T08:31:28.129Z,22.50
2018-08-09T08:33:57.613Z,22.60
2018-08-09T08:36:27.113Z,22.80
2018-08-09T08:38:56.493Z,22.90
2018-08-09T08:41:25.906Z,22.90
2018-08-09T08:43:55.273Z,23.00
2018-08-09T08:46:24.644Z,22.90
2018-08-09T08:48:54.173Z,23.00
2018-08-09T08:51:23.286Z,23.00
2018-08-09T08:53:52.409Z,23.00
2018-08-09T08:56:21.585Z,23.20
2018-08-09T08:58:50.833Z,23.30
2018-08-09T09:01:20.494Z,23.60
2018-08-09T09:03:49.765Z,23.60
2018-08-09T09:06:18.873Z,23.80
2018-08-09T09:08:48.452Z,23.80
2018-08-09T09:11:18.014Z,23.80
2018-08-09T09:13:47.241Z,23.90
2018-08-09T09:16:16.333Z,23.90
2018-08-09T09:18:45.833Z,23.90
2018-08-09T09:21:15.525Z,23.90
2018-08-09T09:23:44.713Z,24.00
2018-08-09T09:26:14.240Z,24.10
2018-08-09T09:28:44.772Z,24.10
2018-08-09T09:31:13.893Z,24.20
2018-08-09T09:33:43.473Z,24.30
2018-08-09T09:36:12.806Z,24.40
2018-08-09T09:38:42.053Z,24.50
2018-08-09T09:41:11.144Z,24.50
2018-08-09T09:43:40.346Z,24.60
2018-08-09T09:46:09.711Z,24.70
2018-08-09T09:48:38.545Z,24.80
2018-08-09T09:51:07.398Z,25.00
2018-08-09T09:53:36.373Z,25.10
2018-08-09T09:56:05.281Z,25.20
2018-08-09T09:58:34.180Z,25.30
2018-08-09T10:01:08.367Z,25.20
2018-08-09T10:03:40.251Z,25.40
2018-08-09T10:06:09.495Z,25.50
2018-08-09T10:08:38.348Z,25.60
2018-08-09T10:11:07.681Z,25.90
2018-08-09T10:13:36.689Z,26.00
2018-08-09T10:16:06.524Z,26.10
2018-08-09T10:18:35.795Z,26.10
2018-08-09T10:21:04.700Z,26.30
2018-08-09T10:23:34.265Z,26.40
2018-08-09T10:26:03.801Z,26.60
2018-08-09T10:28:33.270Z,26.80
2018-08-09T10:31:02.179Z,26.90
2018-08-09T10:33:31.145Z,27.10
2018-08-09T10:36:01.124Z,27.30
2018-08-09T10:38:30.360Z,27.40
2018-08-09T10:41:12.271Z,27.50
2018-08-09T10:43:41.611Z,27.60
2018-08-09T10:46:10.662Z,27.80
2018-08-09T10:48:40.109Z,27.90
2018-08-09T10:51:09.302Z,28.00
2018-08-09T10:53:38.808Z,28.20
2018-08-09T10:56:08.410Z,28.50
2018-08-09T10:58:37.435Z,28.60
2018-08-09T11:01:06.283Z,28.70
2018-08-09T11:03:35.129Z,29.00
2018-08-09T11:06:04.570Z,29.00
2018-08-09T11:08:33.419Z,29.20
2018-08-09T11:11:09.488Z,29.40
2018-08-09T11:13:38.334Z,29.60
2018-08-09T11:16:07.380Z,29.70
2018-08-09T11:18:37.455Z,29.80
2018-08-09T11:21:06.387Z,29.90
2018-08-09T11:23:35.272Z,30.10
2018-08-09T11:26:04.566Z,30.20
2018-08-09T11:28:33.425Z,30.30
2018-08-09T11:31:02.277Z,30.30
2018-08-09T11:33:31.161Z,30.30
2018-08-09T11:36:00.028Z,30.30
2018-08-09T11:38:29.159Z,30.40
2018-08-09T11:40:58.380Z,30.40
2018-08-09T11:43:27.238Z,30.40
2018-08-09T11:45:56.100Z,30.40
2018-08-09T11:48:25.316Z,30.50
2018-08-09T11:50:54.151Z,30.50
2018-08-09T11:53:22.996Z,30.70
2018-08-09T11:55:51.839Z,30.90
2018-08-09T11:58:20.702Z,31.10
2018-08-09T12:00:49.628Z,31.30
2018-08-09T12:03:18.533Z,31.40
2018-08-09T12:05:47.359Z,31.60
2018-08-09T12:08:16.202Z,31.60
2018-08-09T12:10:51.703Z,31.60
2018-08-09T12:13:20.657Z,31.60
2018-08-09T12:15:49.577Z,31.80
2018-08-09T12:18:18.458Z,31.90
2018-08-09T12:20:47.391Z,32.10
2018-08-09T12:23:16.208Z,32.40
2018-08-09T12:25:45.075Z,32.60
2018-08-09T12:28:14.004Z,32.80
2018-08-09T12:30:42.851Z,33.00
2018-08-09T12:33:11.859Z,33.20
2018-08-09T12:35:40.659Z,33.40
2018-08-09T12:38:09.616Z,33.40
2018-08-09T12:40:38.566Z,33.20
2018-08-09T12:43:07.489Z,33.10
2018-08-09T12:45:36.496Z,33.30
2018-08-09T12:48:05.378Z,33.50
2018-08-09T12:50:34.300Z,33.70
2018-08-09T12:53:03.174Z,34.00
2018-08-09T12:55:32.018Z,34.10
2018-08-09T12:58:00.900Z,33.90
2018-08-09T13:00:29.798Z,33.80
2018-08-09T13:02:58.710Z,33.70
2018-08-09T13:05:27.539Z,33.50
2018-08-09T13:07:56.558Z,33.30
2018-08-09T13:10:25.445Z,33.40
2018-08-09T13:12:54.340Z,33.60
2018-08-09T13:15:23.279Z,33.90
2018-08-09T13:17:52.160Z,34.10
2018-08-09T13:20:21.678Z,34.30
2018-08-09T13:22:51.602Z,34.30
2018-08-09T13:25:20.646Z,34.40
2018-08-09T13:27:49.632Z,34.30
2018-08-09T13:30:18.635Z,34.30
2018-08-09T13:32:47.451Z,34.40
2018-08-09T13:35:16.421Z,34.50
2018-08-09T13:37:45.325Z,34.50
2018-08-09T13:40:14.327Z,34.60
2018-08-09T13:42:43.225Z,34.80
2018-08-09T13:45:14.677Z,35.10
2018-08-09T13:47:43.563Z,35.10
2018-08-09T13:50:13.050Z,35.00
2018-08-09T13:52:42.571Z,35.10
2018-08-09T13:55:13.242Z,35.30
2018-08-09T13:57:42.210Z,35.60
2018-08-09T14:00:12.745Z,35.70
2018-08-09T14:02:43.287Z,35.50
2018-08-09T14:05:12.258Z,35.70
2018-08-09T14:07:42.569Z,35.80
2018-08-09T14:10:12.135Z,35.90
2018-08-09T14:12:41.995Z,36.10
2018-08-09T14:15:12.399Z,36.20
2018-08-09T14:17:41.353Z,36.30
2018-08-09T14:20:12.234Z,36.50
2018-08-09T14:22:41.132Z,36.60
2018-08-09T14:25:10.124Z,36.80
2018-08-09T14:27:39.035Z,37.00
2018-08-09T14:30:09.560Z,37.10
2018-08-09T14:32:38.385Z,37.10
2018-08-09T14:35:09.774Z,37.10
2018-08-09T14:37:38.705Z,37.00
2018-08-09T14:40:08.614Z,37.30
2018-08-09T14:42:37.605Z,37.40
2018-08-09T14:45:09.744Z,37.40
2018-08-09T14:47:38.601Z,37.60
2018-08-09T14:50:07.532Z,37.60
2018-08-09T14:52:36.809Z,37.40
2018-08-09T14:55:07.179Z,37.50
2018-08-09T14:57:36.115Z,37.30
2018-08-09T15:00:09.231Z,37.30
2018-08-09T15:02:38.287Z,37.10
2018-08-09T15:05:07.160Z,37.20
2018-08-09T15:07:36.051Z,37.00
2018-08-09T15:10:05.203Z,36.80
2018-08-09T15:12:34.192Z,36.60
2018-08-09T15:15:03.269Z,36.40
2018-08-09T15:17:33.072Z,36.30
2018-08-09T15:20:01.917Z,36.10
2018-08-09T15:22:30.847Z,35.80
2018-08-09T15:24:59.720Z,35.40
2018-08-09T15:27:28.628Z,35.20
2018-08-09T15:29:57.507Z,35.00
2018-08-09T15:32:26.351Z,34.90
2018-08-09T15:34:55.247Z,34.70
2018-08-09T15:37:24.168Z,34.60
2018-08-09T15:39:53.207Z,34.60
2018-08-09T15:42:23.056Z,34.70
2018-08-09T15:44:51.961Z,34.80
2018-08-09T15:47:20.870Z,35.00
2018-08-09T15:49:49.773Z,35.20
2018-08-09T15:52:18.763Z,35.20
2018-08-09T15:54:47.704Z,35.30
2018-08-09T15:57:16.592Z,35.20
2018-08-09T15:59:45.520Z,35.30
2018-08-09T16:02:14.475Z,35.30
2018-08-09T16:04:43.462Z,35.30
2018-08-09T16:07:12.307Z,35.30
2018-08-09T16:09:41.150Z,35.40
2018-08-09T16:12:10.031Z,35.40
2018-08-09T16:14:38.987Z,35.40
2018-08-09T16:17:08.161Z,35.50
2018-08-09T16:19:37.139Z,35.40
2018-08-09T16:22:06.084Z,35.50
2018-08-09T16:24:35.058Z,35.50
2018-08-09T16:27:04.150Z,35.40
2018-08-09T16:29:33.015Z,35.40
2018-08-09T16:32:01.954Z,35.40
2018-08-09T16:34:30.777Z,35.20
2018-08-09T16:36:59.742Z,35.20
2018-08-09T16:39:28.649Z,34.80
2018-08-09T16:41:57.540Z,34.60
2018-08-09T16:44:26.475Z,34.30
2018-08-09T16:46:55.387Z,34.00
2018-08-09T16:49:24.292Z,34.00
2018-08-09T16:51:53.135Z,34.20
2018-08-09T16:54:22.018Z,34.30
2018-08-09T16:56:50.789Z,33.90
2018-08-09T16:59:19.638Z,33.40
2018-08-09T17:01:48.476Z,33.00
2018-08-09T17:04:17.292Z,32.40
2018-08-09T17:06:46.140Z,31.90
2018-08-09T17:09:15.379Z,31.50
2018-08-09T17:11:45.289Z,31.30
2018-08-09T17:14:15.555Z,31.00
2018-08-09T17:16:45.080Z,30.70
2018-08-09T17:19:13.891Z,30.60
2018-08-09T17:21:42.798Z,30.50
2018-08-09T17:24:12.135Z,30.30
2018-08-09T17:26:41.159Z,30.40
2018-08-09T17:29:10.771Z,30.30
2018-08-09T17:31:39.598Z,30.40
2018-08-09T17:34:08.589Z,30.40
2018-08-09T17:36:37.512Z,30.20
2018-08-09T17:39:10.261Z,30.10
2018-08-09T17:41:39.524Z,30.00
2018-08-09T17:44:10.189Z,29.90
2018-08-09T17:46:39.026Z,29.90
2018-08-09T17:49:07.966Z,29.60
2018-08-09T17:51:36.850Z,29.50
2018-08-09T17:54:05.754Z,29.50
2018-08-09T17:56:34.639Z,29.70
2018-08-09T17:59:03.585Z,29.90
2018-08-09T18:01:32.444Z,29.90
2018-08-09T18:04:01.320Z,29.90
2018-08-09T18:06:30.243Z,29.90
2018-08-09T18:08:59.421Z,29.80
2018-08-09T18:11:28.367Z,29.60
2018-08-09T18:13:57.256Z,29.50
2018-08-09T18:16:26.098Z,29.40
2018-08-09T18:18:55.252Z,29.30
2018-08-09T18:21:24.609Z,29.20
2018-08-09T18:23:53.659Z,29.10
2018-08-09T18:26:22.992Z,29.00
2018-08-09T18:28:52.307Z,28.90
2018-08-09T18:31:21.655Z,28.90
2018-08-09T18:33:50.656Z,28.90
2018-08-09T18:36:19.946Z,28.60
2018-08-09T18:38:49.095Z,28.50
2018-08-09T18:41:18.003Z,28.50
2018-08-09T18:43:47.500Z,28.50
2018-08-09T18:46:16.733Z,28.30
2018-08-09T18:48:45.966Z,28.20
2018-08-09T18:51:14.848Z,28.10
2018-08-09T18:53:43.946Z,28.20
2018-08-09T18:56:12.767Z,28.10
2018-08-09T18:58:41.670Z,28.00
2018-08-09T19:01:10.725Z,27.80
2018-08-09T19:03:39.820Z,27.80
2018-08-09T19:06:09.431Z,27.60
2018-08-09T19:08:38.696Z,27.50
2018-08-09T19:11:08.038Z,27.50
2018-08-09T19:13:37.220Z,27.30
2018-08-09T19:16:06.745Z,27.20
2018-08-09T19:18:35.935Z,27.10
2018-08-09T19:21:05.224Z,27.10
2018-08-09T19:23:34.530Z,26.80
2018-08-09T19:26:03.726Z,26.60
2018-08-09T19:28:32.820Z,26.40
2018-08-09T19:31:02.000Z,26.20
2018-08-09T19:33:31.025Z,26.20
2018-08-09T19:36:00.108Z,26.10
2018-08-09T19:38:29.160Z,26.10
2018-08-09T19:40:58.308Z,26.00
2018-08-09T19:43:27.404Z,25.90
2018-08-09T19:45:56.616Z,25.80
2018-08-09T19:48:25.846Z,25.80
2018-08-09T19:50:55.088Z,25.80
2018-08-09T19:53:23.962Z,25.80
2018-08-09T19:55:53.250Z,25.80
2018-08-09T19:58:22.282Z,25.70
2018-08-09T20:00:51.441Z,25.70
2018-08-09T20:03:20.776Z,25.70
2018-08-09T20:05:50.078Z,25.60
2018-08-09T20:08:19.355Z,25.60
2018-08-09T20:10:48.712Z,25.50
2018-08-09T20:13:18.065Z,25.40
2018-08-09T20:15:47.370Z,25.40
2018-08-09T20:18:16.557Z,25.40
2018-08-09T20:20:45.765Z,25.40
2018-08-09T20:23:14.892Z,25.20
2018-08-09T20:25:44.253Z,25.20
2018-08-09T20:28:13.350Z,25.10
2018-08-09T20:30:42.536Z,25.00
2018-08-09T20:33:11.961Z,24.70
2018-08-09T20:35:41.284Z,24.40
2018-08-09T20:38:10.555Z,24.40
2018-08-09T20:40:39.724Z,24.30
2018-08-09T20:43:08.935Z,24.30
2018-08-09T20:45:38.250Z,24.30
2018-08-09T20:48:07.481Z,24.10
2018-08-09T20:50:36.661Z,24.10
2018-08-09T20:53:06.171Z,24.10
2018-08-09T20:55:35.587Z,24.10
2018-08-09T20:58:04.644Z,23.90
2018-08-09T21:00:35.060Z,23.90
2018-08-09T21:03:04.569Z,24.00
2018-08-09T21:05:36.122Z,24.00
2018-08-09T21:08:05.977Z,24.00
2018-08-09T21:10:35.319Z,23.90
2018-08-09T21:13:04.860Z,24.00
2018-08-09T21:15:34.373Z,24.10
2018-08-09T21:18:03.578Z,24.10
2018-08-09T21:20:32.838Z,24.30
2018-08-09T21:23:02.057Z,24.20
2018-08-09T21:25:31.236Z,23.90
2018-08-09T21:28:00.343Z,23.80
2018-08-09T21:30:29.579Z,23.60
2018-08-09T21:32:58.736Z,23.50
2018-08-09T21:35:27.825Z,23.50
2018-08-09T21:37:57.101Z,23.50
2018-08-09T21:40:26.498Z,23.40
2018-08-09T21:42:55.742Z,23.40
2018-08-09T21:45:24.938Z,23.40
2018-08-09T21:47:54.228Z,23.30
2018-08-09T21:50:23.425Z,23.30
2018-08-09T21:52:52.598Z,23.30
2018-08-09T21:55:21.730Z,23.30
2018-08-09T21:57:50.915Z,23.20
2018-08-09T22:00:44.839Z,23.10
2018-08-09T22:03:14.096Z,23.00
2018-08-09T22:05:48.756Z,22.90
2018-08-09T22:08:22.949Z,22.80
2018-08-09T22:10:57.593Z,22.60
2018-08-09T22:13:32.014Z,22.30
2018-08-09T22:16:06.470Z,22.20
2018-08-09T22:18:40.550Z,22.10
2018-08-09T22:21:14.778Z,22.00
2018-08-09T22:23:44.138Z,21.90
2018-08-09T22:26:13.505Z,22.00
2018-08-09T22:28:43.585Z,22.00
2018-08-09T22:31:13.563Z,22.10
2018-08-09T22:33:42.911Z,22.10
2018-08-09T22:36:12.125Z,22.20
2018-08-09T22:38:41.268Z,22.10
2018-08-09T22:41:10.487Z,22.00
2018-08-09T22:43:39.749Z,21.80
2018-08-09T22:46:09.503Z,21.70
2018-08-09T22:48:38.643Z,21.70
2018-08-09T22:51:07.829Z,21.60
2018-08-09T22:53:36.929Z,21.70
2018-08-09T22:56:06.149Z,21.70
2018-08-09T22:58:35.259Z,21.60
2018-08-09T23:01:05.548Z,21.70
2018-08-09T23:03:34.781Z,21.70
2018-08-09T23:06:04.056Z,21.60
2018-08-09T23:08:33.244Z,21.50
2018-08-09T23:11:02.385Z,21.50
2018-08-09T23:13:31.385Z,21.60
2018-08-09T23:16:00.608Z,21.60
2018-08-09T23:18:29.835Z,21.70
2018-08-09T23:20:58.959Z,21.70
2018-08-09T23:23:28.252Z,21.70
2018-08-09T23:25:57.324Z,21.70
2018-08-09T23:28:26.414Z,21.60
2018-08-09T23:30:55.600Z,21.40
2018-08-09T23:33:25.579Z,21.30
2018-08-09T23:35:54.923Z,21.20
2018-08-09T23:38:24.021Z,21.20
2018-08-09T23:40:53.320Z,21.20
2018-08-09T23:43:22.514Z,21.30
2018-08-09T23:45:51.706Z,21.40
2018-08-09T23:48:21.054Z,21.30
2018-08-09T23:50:50.413Z,21.40
2018-08-09T23:53:19.610Z,21.30
2018-08-09T23:55:48.805Z,21.10
2018-08-09T23:58:17.996Z,21.10
